Time;durP1;ratioP1;P1;durP2;ratioP2;P2;SDS_P1;SDS_P2;PMS_P1;PMS_P2;Temp;Humidity;BMP_temperature;BMP_pressure;BME280_temperature;BME280_humidity;BME280_pressure;Samples;Min_cycle;Max_cycle;Signal;HPM_P1;HPM_P2
2022/05/06 00:01:44;;;;;;;11.53;9.73;;;;;;;;;;5052673;28;20401;-75
2022/05/06 00:04:10;;;;;;;12.02;9.88;;;;;;;;;;5053037;28;20071;-76
2022/05/06 00:06:38;;;;;;;12.77;8.85;;;;;;;;;;5051745;28;20080;-75
2022/05/06 00:09:04;;;;;;;10.70;8.43;;;;;;;;;;5051188;28;20126;-76
2022/05/06 00:11:31;;;;;;;9.20;6.88;;;;;;;;;;5051944;28;20310;-75
2022/05/06 00:13:57;;;;;;;7.15;6.40;;;;;;;;;;5052683;28;20453;-75
2022/05/06 00:16:24;;;;;;;7.90;7.20;;;;;;;;;;5052633;28;20182;-75
2022/05/06 00:18:52;;;;;;;7.78;6.82;;;;;;;;;;5051248;28;20127;-76
2022/05/06 00:21:19;;;;;;;9.32;6.38;;;;;;;;;;5052633;28;20077;-75
2022/05/06 00:23:46;;;;;;;8.55;6.13;;;;;;;;;;5052800;28;20464;-75
2022/05/06 00:26:12;;;;;;;7.15;6.05;;;;;;;;;;5052655;28;20045;-75
2022/05/06 00:28:39;;;;;;;11.98;6.65;;;;;;;;;;5052622;28;20057;-75
2022/05/06 00:31:06;;;;;;;11.43;6.78;;;;;;;;;;5052225;28;20076;-75
2022/05/06 00:33:33;;;;;;;8.35;6.80;;;;;;;;;;5051299;28;20053;-75
2022/05/06 00:36:01;;;;;;;9.93;7.60;;;;;;;;;;5052298;28;20469;-75
2022/05/06 00:38:27;;;;;;;8.23;6.43;;;;;;;;;;5052363;28;20416;-75
2022/05/06 00:40:54;;;;;;;8.48;6.20;;;;;;;;;;5051822;28;20072;-75
2022/05/06 00:43:21;;;;;;;9.90;6.72;;;;;;;;;;5051763;28;20512;-75
2022/05/06 00:45:54;;;;;;;7.18;6.40;;;;;;;;;;5051034;28;20053;-75
2022/05/06 00:48:25;;;;;;;8.13;6.22;;;;;;;;;;5050848;28;20048;-75
2022/05/06 00:50:52;;;;;;;7.30;6.13;;;;;;;;;;5052521;28;20080;-75
2022/05/06 00:53:18;;;;;;;7.20;6.40;;;;;;;;;;5051722;28;20076;-75
2022/05/06 00:55:45;;;;;;;9.05;6.88;;;;;;;;;;5052169;28;20519;-75
2022/05/06 00:58:13;;;;;;;8.13;7.05;;;;;;;;;;5052120;28;20076;-75
2022/05/06 01:00:40;;;;;;;7.78;6.90;;;;;;;;;;5051980;28;20126;-75
2022/05/06 01:03:06;;;;;;;8.70;6.93;;;;;;;;;;5050749;28;20077;-75
2022/05/06 01:05:33;;;;;;;9.20;7.68;;;;;;;;;;5051916;28;20057;-75
2022/05/06 01:08:00;;;;;;;8.95;7.05;;;;;;;;;;5050801;28;20049;-75
2022/05/06 01:10:26;;;;;;;9.13;7.07;;;;;;;;;;5051905;28;20060;-75
2022/05/06 01:12:53;;;;;;;7.95;6.95;;;;;;;;;;5051313;28;20325;-75
2022/05/06 01:15:23;;;;;;;8.43;6.82;;;;;;;;;;5051739;28;20080;-75
2022/05/06 01:17:51;;;;;;;7.97;7.18;;;;;;;;;;5051808;28;20178;-75
2022/05/06 01:20:17;;;;;;;;;;;;;;;;;;5052297;28;20048;-75
2022/05/06 01:22:44;;;;;;;8.02;5.65;;;;;;;;;;5051486;28;19925;-75
2022/05/06 01:25:11;;;;;;;7.88;6.38;;;;;;;;;;5051477;28;20079;-75
2022/05/06 01:27:41;;;;;;;9.10;6.97;;;;;;;;;;5050462;28;20148;-75
2022/05/06 01:30:09;;;;;;;7.90;6.45;;;;;;;;;;5051812;28;20076;-75
2022/05/06 01:32:37;;;;;;;7.57;6.45;;;;;;;;;;5050505;28;20045;-75
2022/05/06 01:35:04;;;;;;;9.00;6.60;;;;;;;;;;5051393;28;20353;-76
2022/05/06 01:37:34;;;;;;;8.05;6.28;;;;;;;;;;5051269;28;20053;-75
2022/05/06 01:40:01;;;;;;;7.55;5.88;;;;;;;;;;5051289;28;20084;-75
2022/05/06 01:42:29;;;;;;;7.68;5.47;;;;;;;;;;5051400;28;20115;-75
2022/05/06 01:44:56;;;;;;;10.52;5.78;;;;;;;;;;5051377;28;20550;-75
2022/05/06 01:47:27;;;;;;;7.28;5.80;;;;;;;;;;5051282;28;20091;-75
2022/05/06 01:49:54;;;;;;;10.20;5.60;;;;;;;;;;5050275;28;20077;-75
2022/05/06 01:52:21;;;;;;;;;;;;;;;;;;5053822;28;20532;-75
2022/05/06 01:54:47;;;;;;;7.90;5.95;;;;;;;;;;5055705;28;19968;-75
2022/05/06 01:57:14;;;;;;;7.63;5.15;;;;;;;;;;5055400;28;20076;-75
2022/05/06 01:59:41;;;;;;;7.13;5.72;;;;;;;;;;5055190;28;20057;-75
2022/05/06 02:02:07;;;;;;;7.28;4.72;;;;;;;;;;5055025;28;20041;-75
2022/05/06 02:07:19;;;;;;;5.88;5.28;;;;;;;;;;5055542;28;20087;-75
2022/05/06 02:09:45;;;;;;;6.78;5.05;;;;;;;;;;5055268;28;20059;-75
2022/05/06 02:12:12;;;;;;;6.70;5.43;;;;;;;;;;5055025;28;20475;-75
2022/05/06 02:14:38;;;;;;;8.10;5.38;;;;;;;;;;5053574;28;20057;-75
2022/05/06 02:17:05;;;;;;;5.85;5.25;;;;;;;;;;5054778;28;20088;-75
2022/05/06 02:19:32;;;;;;;7.03;5.22;;;;;;;;;;5054746;28;20106;-75
2022/05/06 02:21:59;;;;;;;9.45;5.63;;;;;;;;;;5053948;28;20094;-75
2022/05/06 02:24:25;;;;;;;6.63;5.25;;;;;;;;;;5054601;28;20127;-75
2022/05/06 02:26:51;;;;;;;6.20;4.63;;;;;;;;;;5054803;28;20084;-75
2022/05/06 02:29:18;;;;;;;6.28;5.28;;;;;;;;;;5054738;28;20049;-75
2022/05/06 02:34:29;;;;;;;6.60;5.50;;;;;;;;;;5050586;28;20140;-75
2022/05/06 02:36:56;;;;;;;6.55;4.93;;;;;;;;;;5054314;28;20568;-76
2022/05/06 02:39:23;;;;;;;7.40;6.35;;;;;;;;;;5053180;28;20087;-75
2022/05/06 02:41:49;;;;;;;6.68;5.93;;;;;;;;;;5054395;28;20053;-75
2022/05/06 02:44:16;;;;;;;5.97;5.03;;;;;;;;;;5054627;28;20076;-75
2022/05/06 02:46:42;;;;;;;6.22;5.30;;;;;;;;;;5054563;28;20081;-75
2022/05/06 02:49:09;;;;;;;7.82;5.78;;;;;;;;;;5054364;28;20076;-75
2022/05/06 02:51:35;;;;;;;7.50;5.45;;;;;;;;;;5054312;28;20136;-76
2022/05/06 02:54:02;;;;;;;9.55;5.65;;;;;;;;;;5054275;28;20056;-75
2022/05/06 02:56:28;;;;;;;7.20;5.15;;;;;;;;;;5054036;28;20076;-75
2022/05/06 02:58:54;;;;;;;8.43;6.07;;;;;;;;;;5053901;28;20080;-75
2022/05/06 03:01:21;;;;;;;5.85;4.97;;;;;;;;;;5054281;28;20081;-75
2022/05/06 03:03:47;;;;;;;6.10;5.50;;;;;;;;;;5053790;28;20106;-75
2022/05/06 03:06:14;;;;;;;7.28;5.18;;;;;;;;;;5053748;28;20063;-75
2022/05/06 03:08:40;;;;;;;6.28;5.68;;;;;;;;;;5053136;28;20099;-75
2022/05/06 03:11:07;;;;;;;5.45;4.70;;;;;;;;;;5054031;28;20087;-75
2022/05/06 03:13:34;;;;;;;5.90;5.30;;;;;;;;;;5053821;28;20053;-75
2022/05/06 03:16:00;;;;;;;7.15;5.82;;;;;;;;;;5052795;28;20076;-75
2022/05/06 03:18:27;;;;;;;5.50;4.88;;;;;;;;;;5041137;28;20045;-75
2022/05/06 03:20:54;;;;;;;6.30;5.70;;;;;;;;;;5053910;28;20053;-76
2022/05/06 03:23:20;;;;;;;7.15;5.40;;;;;;;;;;5053768;28;20110;-75
2022/05/06 03:25:47;;;;;;;5.88;5.20;;;;;;;;;;5053540;28;20607;-76
2022/05/06 03:28:14;;;;;;;6.70;5.47;;;;;;;;;;5053832;28;20068;-76
2022/05/06 03:30:44;;;;;;;8.70;6.28;;;;;;;;;;5053467;28;20544;-76
2022/05/06 03:33:15;;;;;;;7.05;6.10;;;;;;;;;;5053538;28;20060;-76
2022/05/06 03:35:42;;;;;;;7.70;5.30;;;;;;;;;;5053670;28;20053;-75
2022/05/06 03:38:08;;;;;;;6.70;5.20;;;;;;;;;;5053428;28;20078;-76
2022/05/06 03:40:35;;;;;;;8.77;5.82;;;;;;;;;;5053406;28;20112;-76
2022/05/06 03:43:01;;;;;;;6.25;5.68;;;;;;;;;;5053080;28;20571;-76
2022/05/06 03:45:28;;;;;;;9.23;6.10;;;;;;;;;;5053369;28;20080;-76
2022/05/06 03:47:56;;;;;;;8.30;6.50;;;;;;;;;;5053390;28;20091;-76
2022/05/06 03:53:08;;;;;;;8.30;6.50;;;;;;;;;;5053367;28;20559;-76
2022/05/06 03:55:34;;;;;;;10.60;6.50;;;;;;;;;;5053271;28;20414;-76
2022/05/06 03:58:00;;;;;;;7.60;5.95;;;;;;;;;;5053100;28;20057;-76
2022/05/06 04:00:27;;;;;;;8.05;6.32;;;;;;;;;;5052954;28;20049;-76
2022/05/06 04:02:53;;;;;;;8.98;7.18;;;;;;;;;;5052896;28;20077;-76
2022/05/06 04:05:20;;;;;;;9.10;6.60;;;;;;;;;;5052907;28;20077;-76
2022/05/06 04:07:46;;;;;;;7.78;6.70;;;;;;;;;;5039148;28;20572;-76
2022/05/06 04:10:13;;;;;;;8.00;6.63;;;;;;;;;;5052953;28;20098;-76
2022/05/06 04:12:39;;;;;;;8.75;6.22;;;;;;;;;;5052761;28;20124;-75
2022/05/06 04:15:06;;;;;;;9.23;5.75;;;;;;;;;;5050599;28;20076;-76
2022/05/06 04:17:33;;;;;;;10.73;6.00;;;;;;;;;;5051184;28;20104;-76
2022/05/06 04:25:29;;;;;;;6.88;5.70;;;;;;;;;;5052633;28;20486;-76
2022/05/06 04:27:55;;;;;;;7.95;5.13;;;;;;;;;;5052395;28;20049;-77
2022/05/06 04:30:22;;;;;;;7.50;5.25;;;;;;;;;;5052534;28;20056;-76
2022/05/06 04:32:48;;;;;;;6.13;5.53;;;;;;;;;;5052169;28;20588;-76
2022/05/06 04:35:15;;;;;;;7.93;4.55;;;;;;;;;;5052481;28;20083;-76
2022/05/06 04:37:43;;;;;;;7.03;4.68;;;;;;;;;;5052437;28;20056;-76
2022/05/06 04:40:09;;;;;;;7.70;4.57;;;;;;;;;;5052437;28;20045;-75
2022/05/06 04:42:36;;;;;;;7.05;4.18;;;;;;;;;;5052255;28;20107;-75
2022/05/06 04:45:02;;;;;;;7.28;3.60;;;;;;;;;;5051975;28;20128;-76
2022/05/06 04:47:29;;;;;;;3.92;3.63;;;;;;;;;;5052333;28;20128;-76
2022/05/06 04:49:55;;;;;;;4.95;3.65;;;;;;;;;;5051988;28;20479;-76
2022/05/06 04:52:22;;;;;;;5.30;4.22;;;;;;;;;;5052129;28;20103;-76
2022/05/06 04:54:49;;;;;;;4.85;3.63;;;;;;;;;;5051858;28;20045;-76
2022/05/06 04:57:15;;;;;;;4.30;3.40;;;;;;;;;;5051811;28;20124;-76
2022/05/06 04:59:47;;;;;;;5.63;3.53;;;;;;;;;;5052167;28;20471;-76
2022/05/06 05:02:17;;;;;;;6.15;3.25;;;;;;;;;;5050968;28;20080;-76
2022/05/06 05:04:44;;;;;;;5.38;3.15;;;;;;;;;;5051852;28;20049;-76
2022/05/06 05:07:11;;;;;;;4.27;3.27;;;;;;;;;;5051988;28;20091;-76
2022/05/06 05:09:37;;;;;;;4.10;3.10;;;;;;;;;;5050831;28;20389;-76
2022/05/06 05:12:04;;;;;;;4.13;3.38;;;;;;;;;;5051932;28;20080;-76
2022/05/06 05:14:37;;;;;;;3.95;3.13;;;;;;;;;;5050574;28;20091;-76
2022/05/06 05:17:04;;;;;;;4.97;2.88;;;;;;;;;;5051517;28;20405;-76
2022/05/06 05:19:30;;;;;;;4.80;3.35;;;;;;;;;;5051652;28;20076;-76
2022/05/06 05:21:56;;;;;;;3.35;3.05;;;;;;;;;;5051889;28;20080;-76
2022/05/06 05:24:23;;;;;;;3.10;2.80;;;;;;;;;;5051474;28;20073;-76
2022/05/06 05:26:50;;;;;;;5.93;3.03;;;;;;;;;;5051472;28;20087;-76
2022/05/06 05:29:17;;;;;;;4.00;2.67;;;;;;;;;;5051723;28;20106;-76
2022/05/06 05:31:43;;;;;;;4.20;2.75;;;;;;;;;;5051773;28;20114;-75
2022/05/06 05:34:10;;;;;;;2.80;2.40;;;;;;;;;;5051605;28;20132;-75
2022/05/06 05:36:36;;;;;;;3.33;2.90;;;;;;;;;;5051312;28;20535;-76
2022/05/06 05:39:03;;;;;;;2.97;2.67;;;;;;;;;;5051466;28;20048;-76
2022/05/06 05:41:29;;;;;;;3.80;2.97;;;;;;;;;;5051587;28;20077;-76
2022/05/06 05:49:26;;;;;;;4.40;3.08;;;;;;;;;;5051531;28;20128;-76
2022/05/06 05:51:52;;;;;;;3.13;2.70;;;;;;;;;;5049990;28;20106;-75
2022/05/06 05:54:19;;;;;;;3.85;2.67;;;;;;;;;;5050485;28;20532;-75
2022/05/06 05:56:46;;;;;;;4.18;3.10;;;;;;;;;;5050991;28;20103;-75
2022/05/06 05:59:12;;;;;;;3.20;2.90;;;;;;;;;;5049577;28;20136;-76
2022/05/06 06:01:39;;;;;;;3.45;3.15;;;;;;;;;;5049713;28;20088;-75
2022/05/06 06:04:06;;;;;;;3.35;2.97;;;;;;;;;;5051069;28;20051;-75
2022/05/06 06:06:34;;;;;;;5.30;3.45;;;;;;;;;;5050704;28;20493;-75
2022/05/06 06:09:00;;;;;;;3.30;3.00;;;;;;;;;;5050948;28;20120;-75
2022/05/06 06:11:27;;;;;;;4.03;3.30;;;;;;;;;;5051136;28;20104;-75
2022/05/06 06:13:54;;;;;;;3.80;3.03;;;;;;;;;;5049423;28;20080;-74
2022/05/06 06:16:20;;;;;;;6.63;3.30;;;;;;;;;;5050603;28;20077;-73
2022/05/06 06:18:47;;;;;;;3.30;2.90;;;;;;;;;;5051210;28;20049;-75
2022/05/06 06:21:13;;;;;;;4.70;3.15;;;;;;;;;;5050702;28;20081;-75
2022/05/06 06:23:40;;;;;;;3.55;3.08;;;;;;;;;;5051189;28;20103;-75
2022/05/06 06:26:06;;;;;;;3.72;3.22;;;;;;;;;;5051087;28;20080;-75
2022/05/06 06:28:32;;;;;;;4.15;3.08;;;;;;;;;;5050613;28;20463;-74
2022/05/06 06:30:59;;;;;;;3.60;3.17;;;;;;;;;;5050800;28;20073;-72
2022/05/06 06:33:25;;;;;;;4.07;2.90;;;;;;;;;;5050084;28;20152;-76
2022/05/06 06:35:52;;;;;;;4.45;3.70;;;;;;;;;;5049539;28;20093;-76
2022/05/06 06:38:18;;;;;;;5.30;3.22;;;;;;;;;;5049695;28;20076;-75
2022/05/06 06:40:44;;;;;;;4.85;2.95;;;;;;;;;;5051652;28;20120;-74
2022/05/06 06:43:11;;;;;;;7.40;3.33;;;;;;;;;;5044827;28;20505;-71
2022/05/06 06:45:37;;;;;;;4.53;2.60;;;;;;;;;;5051427;28;20071;-71
2022/05/06 06:48:04;;;;;;;2.40;2.20;;;;;;;;;;5053891;28;20518;-76
2022/05/06 06:50:31;;;;;;;3.95;2.28;;;;;;;;;;5053162;28;20509;-71
2022/05/06 06:52:57;;;;;;;2.75;2.53;;;;;;;;;;5053540;28;20044;-72
2022/05/06 06:55:28;;;;;;;3.00;2.72;;;;;;;;;;5053323;28;20144;-71
2022/05/06 06:57:54;;;;;;;2.47;2.35;;;;;;;;;;5054192;28;20048;-71
2022/05/06 07:00:21;;;;;;;3.13;2.45;;;;;;;;;;5054135;28;20090;-73
2022/05/06 07:02:48;;;;;;;4.57;2.55;;;;;;;;;;5053739;28;20076;-73
2022/05/06 07:05:15;;;;;;;3.80;2.63;;;;;;;;;;5054215;28;20095;-75
2022/05/06 07:13:36;;;;;;;4.63;2.95;;;;;;;;;;5053565;28;20071;-75
2022/05/06 07:16:02;;;;;;;5.07;2.50;;;;;;;;;;5053790;28;20081;-76
2022/05/06 07:18:29;;;;;;;3.00;2.67;;;;;;;;;;5054023;28;20496;-75
2022/05/06 07:20:55;;;;;;;5.03;2.80;;;;;;;;;;5054167;28;20041;-75
2022/05/06 07:23:23;;;;;;;4.20;3.42;;;;;;;;;;5053484;28;20516;-76
2022/05/06 07:25:49;;;;;;;3.38;3.05;;;;;;;;;;5053741;28;20497;-74
2022/05/06 07:28:16;;;;;;;3.30;2.60;;;;;;;;;;5053707;28;20114;-74
2022/05/06 07:30:42;;;;;;;3.42;3.17;;;;;;;;;;5052775;28;20087;-74
2022/05/06 07:33:08;;;;;;;4.30;2.95;;;;;;;;;;5053289;28;20506;-75
2022/05/06 07:35:38;;;;;;;3.40;3.10;;;;;;;;;;5053086;28;20458;-75
2022/05/06 07:38:05;;;;;;;3.92;3.38;;;;;;;;;;5051556;28;20432;-75
2022/05/06 07:40:31;;;;;;;3.47;2.50;;;;;;;;;;5053034;28;20504;-75
2022/05/06 07:42:57;;;;;;;3.17;2.42;;;;;;;;;;5052598;28;20084;-74
2022/05/06 07:45:24;;;;;;;4.90;2.60;;;;;;;;;;5053526;28;20077;-74
2022/05/06 07:47:50;;;;;;;3.17;2.50;;;;;;;;;;5053330;28;20079;-74
2022/05/06 07:50:31;;;;;;;4.22;2.22;;;;;;;;;;5052185;28;20404;-74
2022/05/06 07:52:58;;;;;;;3.08;2.13;;;;;;;;;;5053413;28;20095;-74
2022/05/06 07:55:24;;;;;;;2.60;2.20;;;;;;;;;;5053214;28;20473;-74
2022/05/06 07:57:51;;;;;;;3.08;2.72;;;;;;;;;;5053268;28;20084;-74
2022/05/06 08:00:23;;;;;;;4.57;2.20;;;;;;;;;;5052992;28;20433;-74
2022/05/06 08:05:37;;;;;;;2.08;1.75;;;;;;;;;;5053151;28;20072;-74
2022/05/06 08:08:04;;;;;;;2.40;2.20;;;;;;;;;;5052767;28;20084;-74
2022/05/06 08:10:30;;;;;;;2.10;1.90;;;;;;;;;;5053000;28;20049;-74
2022/05/06 08:12:57;;;;;;;3.20;2.30;;;;;;;;;;5052353;28;20088;-73
2022/05/06 08:15:24;;;;;;;2.40;2.20;;;;;;;;;;5050936;28;20529;-74
2022/05/06 08:17:51;;;;;;;2.30;2.20;;;;;;;;;;5052720;28;20045;-74
2022/05/06 08:20:17;;;;;;;2.95;2.45;;;;;;;;;;5052685;28;20124;-74
2022/05/06 08:22:44;;;;;;;2.60;2.40;;;;;;;;;;5050705;28;20049;-75
2022/05/06 08:25:11;;;;;;;2.28;2.17;;;;;;;;;;5052539;28;20320;-74
2022/05/06 08:27:55;;;;;;;2.42;2.15;;;;;;;;;;5052205;28;20073;-74
2022/05/06 08:30:21;;;;;;;2.00;1.80;;;;;;;;;;5051880;28;20049;-74
2022/05/06 08:32:48;;;;;;;2.33;2.05;;;;;;;;;;5052516;28;20194;-74
2022/05/06 08:35:15;;;;;;;2.38;2.17;;;;;;;;;;5052253;28;20546;-76
2022/05/06 08:37:42;;;;;;;3.38;2.53;;;;;;;;;;5052490;28;20072;-76
2022/05/06 08:40:09;;;;;;;3.88;2.10;;;;;;;;;;5051633;28;20570;-75
2022/05/06 08:42:35;;;;;;;1.77;1.02;;;;;;;;;;5051349;28;20102;-74
2022/05/06 08:53:17;;;;;;;1.90;1.33;;;;;;;;;;5041765;28;20076;-74
2022/05/06 08:55:44;;;;;;;1.33;1.23;;;;;;;;;;5037466;28;20107;-75
2022/05/06 08:58:10;;;;;;;1.77;1.00;;;;;;;;;;5051091;28;20559;-75
2022/05/06 09:00:36;;;;;;;2.60;1.30;;;;;;;;;;5051650;28;20083;-75
2022/05/06 09:03:03;;;;;;;3.73;1.60;;;;;;;;;;5052344;28;20380;-74
2022/05/06 09:05:31;;;;;;;3.15;1.48;;;;;;;;;;5051669;28;20278;-74
2022/05/06 09:07:58;;;;;;;2.78;1.20;;;;;;;;;;5051667;28;20523;-80
2022/05/06 09:10:24;;;;;;;;;;;;;;;;;;5052147;28;20057;-75
2022/05/06 09:12:59;;;;;;;3.90;1.58;;;;;;;;;;5051936;28;19925;-75
2022/05/06 09:18:17;;;;;;;1.42;1.27;;;;;;;;;;5051855;28;20132;-75
2022/05/06 09:20:43;;;;;;;1.30;1.20;;;;;;;;;;5050403;28;20566;-76
2022/05/06 09:23:21;;;;;;;1.02;0.95;;;;;;;;;;5051677;28;20098;-75
2022/05/06 09:25:51;;;;;;;1.60;1.10;;;;;;;;;;5051848;28;20076;-75
2022/05/06 09:28:24;;;;;;;1.95;1.27;;;;;;;;;;5051507;28;20037;-76
2022/05/06 09:30:59;;;;;;;1.17;1.00;;;;;;;;;;5051132;28;20113;-75
2022/05/06 09:33:26;;;;;;;1.98;1.23;;;;;;;;;;5051405;28;20471;-75
2022/05/06 09:35:53;;;;;;;1.33;0.65;;;;;;;;;;5051060;28;20549;-75
2022/05/06 09:38:21;;;;;;;2.33;1.10;;;;;;;;;;5051555;28;20084;-74
2022/05/06 09:40:47;;;;;;;2.80;1.10;;;;;;;;;;5051413;28;20076;-74
2022/05/06 09:43:17;;;;;;;1.27;1.17;;;;;;;;;;5048586;28;20535;-74
2022/05/06 09:45:45;;;;;;;0.98;0.95;;;;;;;;;;5044135;28;20098;-75
2022/05/06 09:48:12;;;;;;;0.88;0.88;;;;;;;;;;5036000;28;20049;-75
2022/05/06 09:50:46;;;;;;;0.77;0.75;;;;;;;;;;5049346;28;20402;-75
2022/05/06 09:53:18;;;;;;;1.98;0.88;;;;;;;;;;5049327;28;20052;-75
2022/05/06 09:55:46;;;;;;;1.05;0.95;;;;;;;;;;5049406;28;20081;-75
2022/05/06 09:58:12;;;;;;;;;;;;;;;;;;5049827;28;20068;-75
2022/05/06 10:00:38;;;;;;;2.95;0.90;;;;;;;;;;5049235;28;20286;-75
2022/05/06 10:03:05;;;;;;;0.73;0.73;;;;;;;;;;5047169;28;20076;-75
2022/05/06 10:05:33;;;;;;;1.98;1.50;;;;;;;;;;5039904;28;20132;-75
2022/05/06 10:08:04;;;;;;;3.97;3.67;;;;;;;;;;5051036;28;20513;-75
2022/05/06 10:10:33;;;;;;;1.77;1.67;;;;;;;;;;5050229;28;20077;-75
2022/05/06 10:13:01;;;;;;;2.05;1.95;;;;;;;;;;5052697;28;20088;-75
2022/05/06 10:15:28;;;;;;;5.60;4.80;;;;;;;;;;5054952;28;20647;-75
2022/05/06 10:17:56;;;;;;;2.45;1.45;;;;;;;;;;5054945;28;20091;-75
2022/05/06 10:20:35;;;;;;;1.55;1.20;;;;;;;;;;5055031;28;20041;-75
2022/05/06 10:23:08;;;;;;;2.38;1.30;;;;;;;;;;5054888;28;20454;-75
2022/05/06 10:25:40;;;;;;;1.40;1.10;;;;;;;;;;5055258;28;20401;-75
2022/05/06 10:34:12;;;;;;;1.25;1.15;;;;;;;;;;5054990;28;20103;-75
2022/05/06 10:36:49;;;;;;;1.55;1.45;;;;;;;;;;5054552;28;20497;-75
2022/05/06 10:39:18;;;;;;;3.17;1.23;;;;;;;;;;5054678;28;20041;-75
2022/05/06 10:42:00;;;;;;;2.20;1.23;;;;;;;;;;5054622;28;20083;-75
2022/05/06 10:44:35;;;;;;;0.73;0.73;;;;;;;;;;5054468;28;20472;-75
2022/05/06 10:47:23;;;;;;;1.42;1.08;;;;;;;;;;5054295;28;20489;-76
2022/05/06 10:49:50;;;;;;;3.08;2.75;;;;;;;;;;5052553;28;20041;-76
2022/05/06 10:52:20;;;;;;;3.45;3.15;;;;;;;;;;5054153;28;20080;-75
2022/05/06 10:54:47;;;;;;;4.25;3.72;;;;;;;;;;5054400;28;20048;-75
2022/05/06 10:57:14;;;;;;;6.30;4.15;;;;;;;;;;5040102;28;20071;-76
2022/05/06 10:59:48;;;;;;;5.63;5.13;;;;;;;;;;5054479;28;20076;-76
2022/05/06 11:02:14;;;;;;;7.82;7.10;;;;;;;;;;5052950;28;20194;-76
2022/05/06 11:04:41;;;;;;;;;;;;;;;;;;5054439;28;20562;-76
2022/05/06 11:07:11;;;;;;;3.40;1.80;;;;;;;;;;5054281;28;19924;-76
2022/05/06 11:09:38;;;;;;;5.90;5.32;;;;;;;;;;5054261;28;20114;-76
2022/05/06 11:12:04;;;;;;;10.25;4.38;;;;;;;;;;5054215;28;20052;-76
2022/05/06 11:14:31;;;;;;;2.72;2.47;;;;;;;;;;5052849;28;20088;-76
2022/05/06 11:16:57;;;;;;;;;;;;;;;;;;5054233;28;20087;-76
2022/05/06 11:19:33;;;;;;;2.45;2.10;;;;;;;;;;5053380;28;20023;-75
2022/05/06 11:22:09;;;;;;;2.38;1.40;;;;;;;;;;5052708;28;20049;-75
2022/05/06 11:24:35;;;;;;;1.77;1.67;;;;;;;;;;5053380;28;20045;-75
2022/05/06 11:27:31;;;;;;;2.08;1.58;;;;;;;;;;5042767;28;20085;-76
2022/05/06 11:29:58;;;;;;;1.40;1.30;;;;;;;;;;5048899;28;20068;-76
2022/05/06 11:32:28;;;;;;;1.00;1.00;;;;;;;;;;5053229;28;20381;-75
2022/05/06 11:34:55;;;;;;;1.42;1.10;;;;;;;;;;5053817;28;20080;-74
2022/05/06 11:37:26;;;;;;;1.20;1.13;;;;;;;;;;5053115;28;20041;-76
2022/05/06 11:40:18;;;;;;;3.30;1.98;;;;;;;;;;5051978;28;20087;-76
2022/05/06 11:42:40;;;;;;;1.20;1.20;;;;;;;;;;5048573;28;20084;-75
2022/05/06 11:47:52;;;;;;;1.48;1.38;;;;;;;;;;5052098;28;20574;-75
2022/05/06 11:50:19;;;;;;;2.25;1.50;;;;;;;;;;5051936;28;20077;-75
2022/05/06 11:52:46;;;;;;;1.45;1.35;;;;;;;;;;5050390;28;20071;-75
2022/05/06 11:55:14;;;;;;;1.58;1.30;;;;;;;;;;5051544;28;20127;-75
2022/05/06 11:57:41;;;;;;;2.53;1.50;;;;;;;;;;5051796;28;20049;-74
2022/05/06 12:00:08;;;;;;;;;;;;;;;;;;5052147;28;20084;-74
2022/05/06 12:02:34;;;;;;;1.60;1.50;;;;;;;;;;5051605;28;19924;-74
2022/05/06 12:05:01;;;;;;;1.35;1.20;;;;;;;;;;5051418;28;20128;-74
2022/05/06 12:07:42;;;;;;;9.48;1.70;;;;;;;;;;5050069;28;20501;-74
2022/05/06 12:10:09;;;;;;;1.48;1.38;;;;;;;;;;5051710;28;20098;-74
2022/05/06 12:12:52;;;;;;;1.35;1.25;;;;;;;;;;5051450;28;20563;-74
2022/05/06 12:15:18;;;;;;;1.50;1.40;;;;;;;;;;5051668;28;20080;-66
2022/05/06 12:17:44;;;;;;;1.38;1.27;;;;;;;;;;5051445;28;20523;-66
2022/05/06 12:20:33;;;;;;;1.50;1.40;;;;;;;;;;5050576;28;20417;-65
2022/05/06 12:23:00;;;;;;;2.25;0.90;;;;;;;;;;5049762;28;20323;-65
2022/05/06 12:25:27;;;;;;;0.93;0.90;;;;;;;;;;5051590;28;20049;-65
2022/05/06 12:27:54;;;;;;;;;;;;;;;;;;5052002;28;20496;-65
2022/05/06 12:30:23;;;;;;;0.95;0.80;;;;;;;;;;5051512;28;19970;-66
2022/05/06 12:33:05;;;;;;;1.95;0.85;;;;;;;;;;5050651;28;20460;-66
2022/05/06 12:35:32;;;;;;;1.13;0.80;;;;;;;;;;5049466;28;20053;-66
2022/05/06 12:37:59;;;;;;;1.73;0.98;;;;;;;;;;5049015;28;20072;-66
2022/05/06 12:40:32;;;;;;;0.75;0.75;;;;;;;;;;5050354;28;20081;-66
2022/05/06 12:43:09;;;;;;;1.02;0.70;;;;;;;;;;5050232;28;20132;-66
2022/05/06 12:45:36;;;;;;;1.13;1.02;;;;;;;;;;5050521;28;20585;-66
2022/05/06 12:50:48;;;;;;;0.60;0.60;;;;;;;;;;5048662;28;20123;-66
2022/05/06 12:53:15;;;;;;;1.33;0.60;;;;;;;;;;5049043;28;20456;-66
2022/05/06 12:55:41;;;;;;;1.07;0.50;;;;;;;;;;5050721;28;20076;-65
2022/05/06 12:58:08;;;;;;;1.02;0.60;;;;;;;;;;5046747;28;20048;-66
2022/05/06 13:00:36;;;;;;;1.77;0.53;;;;;;;;;;5050650;28;20045;-66
2022/05/06 13:03:04;;;;;;;1.83;0.55;;;;;;;;;;5050137;28;20328;-66
2022/05/06 13:05:30;;;;;;;1.60;0.70;;;;;;;;;;5050539;28;20045;-66
2022/05/06 13:07:57;;;;;;;2.37;0.73;;;;;;;;;;5050599;28;20155;-66
2022/05/06 13:10:24;;;;;;;1.25;0.60;;;;;;;;;;5050326;28;20819;-66
2022/05/06 13:12:50;;;;;;;2.05;0.50;;;;;;;;;;5041220;28;20553;-66
2022/05/06 13:15:17;;;;;;;1.50;0.70;;;;;;;;;;5045170;28;20045;-65
2022/05/06 13:17:44;;;;;;;3.22;1.50;;;;;;;;;;5047561;28;20132;-66
2022/05/06 13:20:11;;;;;;;1.20;0.80;;;;;;;;;;5049322;28;20052;-65
2022/05/06 13:22:38;;;;;;;2.78;1.42;;;;;;;;;;5046438;28;20077;-65
2022/05/06 13:25:05;;;;;;;3.78;2.83;;;;;;;;;;5050355;28;20095;-66
2022/05/06 13:27:31;;;;;;;2.55;1.10;;;;;;;;;;5049817;28;20080;-65
2022/05/06 13:29:58;;;;;;;3.90;2.73;;;;;;;;;;5050332;28;20156;-66
2022/05/06 13:32:25;;;;;;;;;;;;;;;;;;5051022;28;20049;-66
2022/05/06 13:34:51;;;;;;;23.27;14.20;;;;;;;;;;5050533;28;19968;-66
2022/05/06 13:37:18;;;;;;;10.37;5.43;;;;;;;;;;5049903;28;20152;-66
2022/05/06 13:39:44;;;;;;;11.53;6.70;;;;;;;;;;5050518;28;20092;-66
2022/05/06 13:42:10;;;;;;;10.90;6.77;;;;;;;;;;5050256;28;20084;-66
2022/05/06 13:44:38;;;;;;;3.43;2.53;;;;;;;;;;5049937;28;20084;-65
2022/05/06 13:47:04;;;;;;;5.35;4.00;;;;;;;;;;5051937;28;20080;-66
2022/05/06 13:49:30;;;;;;;2.00;1.55;;;;;;;;;;5053885;28;20049;-66
2022/05/06 13:51:57;;;;;;;2.17;1.67;;;;;;;;;;5054124;28;20350;-65
2022/05/06 13:54:23;;;;;;;3.55;2.42;;;;;;;;;;5053486;28;20564;-66
2022/05/06 13:59:35;;;;;;;11.60;6.57;;;;;;;;;;5054175;28;20084;-65
2022/05/06 14:02:01;;;;;;;11.57;7.10;;;;;;;;;;5054014;28;20489;-66
2022/05/06 14:04:28;;;;;;;15.65;10.18;;;;;;;;;;5054172;28;20049;-75
2022/05/06 14:07:14;;;;;;;14.23;9.60;;;;;;;;;;5053948;28;20175;-75
2022/05/06 14:09:41;;;;;;;1.48;0.40;;;;;;;;;;5053921;28;20091;-75
2022/05/06 14:12:07;;;;;;;6.90;4.20;;;;;;;;;;5054284;28;20080;-74
2022/05/06 14:14:34;;;;;;;3.53;1.87;;;;;;;;;;5042756;28;20505;-74
2022/05/06 14:17:00;;;;;;;8.73;6.03;;;;;;;;;;5053250;28;20321;-74
2022/05/06 14:19:26;;;;;;;4.63;2.50;;;;;;;;;;5053078;28;20133;-74
2022/05/06 14:21:53;;;;;;;10.10;6.97;;;;;;;;;;5054966;28;20076;-73
2022/05/06 14:24:19;;;;;;;0.68;0.50;;;;;;;;;;5053180;28;20106;-75
2022/05/06 14:26:46;;;;;;;3.30;2.33;;;;;;;;;;5053979;28;20102;-74
2022/05/06 14:29:12;;;;;;;0.40;0.40;;;;;;;;;;5053818;28;20110;-74
2022/05/06 14:31:39;;;;;;;1.65;1.42;;;;;;;;;;5053657;28;20085;-75
2022/05/06 14:34:05;;;;;;;0.90;0.50;;;;;;;;;;5053815;28;20076;-73
2022/05/06 14:36:32;;;;;;;1.23;1.13;;;;;;;;;;5053685;28;20321;-73
2022/05/06 14:38:58;;;;;;;0.60;0.60;;;;;;;;;;5051415;28;20099;-73
2022/05/06 14:41:25;;;;;;;0.50;0.50;;;;;;;;;;5053117;28;20064;-73
2022/05/06 14:43:51;;;;;;;1.60;0.77;;;;;;;;;;5051311;28;20098;-73
2022/05/06 14:46:20;;;;;;;1.98;1.70;;;;;;;;;;5052357;28;20100;-73
2022/05/06 14:48:48;;;;;;;1.23;0.90;;;;;;;;;;5053867;28;20051;-74
2022/05/06 14:51:15;;;;;;;1.30;1.30;;;;;;;;;;5054429;28;20056;-73
2022/05/06 14:53:41;;;;;;;1.50;0.90;;;;;;;;;;5054314;28;20083;-73
2022/05/06 14:56:08;;;;;;;1.83;1.73;;;;;;;;;;5053254;28;20076;-74
2022/05/06 14:58:34;;;;;;;0.77;0.65;;;;;;;;;;5053825;28;20128;-73
2022/05/06 15:01:01;;;;;;;0.60;0.60;;;;;;;;;;5054123;28;20162;-74
2022/05/06 15:03:28;;;;;;;0.40;0.40;;;;;;;;;;5054393;28;20434;-73
2022/05/06 15:05:55;;;;;;;1.27;1.08;;;;;;;;;;5054246;28;20099;-73
2022/05/06 15:08:21;;;;;;;0.63;0.43;;;;;;;;;;5054023;28;20132;-73
2022/05/06 15:10:48;;;;;;;0.80;0.80;;;;;;;;;;5054194;28;20084;-73
2022/05/06 15:13:14;;;;;;;1.38;1.27;;;;;;;;;;5053907;28;20412;-73
2022/05/06 15:15:41;;;;;;;0.90;0.80;;;;;;;;;;5053610;28;20045;-73
2022/05/06 15:20:52;;;;;;;0.52;0.52;;;;;;;;;;5054033;28;20056;-73
2022/05/06 15:23:19;;;;;;;0.63;0.63;;;;;;;;;;5053861;28;20076;-73
2022/05/06 15:25:46;;;;;;;1.45;0.73;;;;;;;;;;5053729;28;20724;-73
2022/05/06 15:28:12;;;;;;;;;;;;;;;;;;5054314;28;20072;-73
2022/05/06 15:30:40;;;;;;;0.47;0.40;;;;;;;;;;5052688;28;19968;-73
2022/05/06 15:33:06;;;;;;;0.50;0.50;;;;;;;;;;5053449;28;20110;-73
2022/05/06 15:35:33;;;;;;;0.87;0.30;;;;;;;;;;5053550;28;20091;-73
2022/05/06 15:37:59;;;;;;;0.28;0.22;;;;;;;;;;5053589;28;20111;-73
2022/05/06 15:40:26;;;;;;;0.32;0.32;;;;;;;;;;5053576;28;20092;-73
2022/05/06 15:42:52;;;;;;;0.68;0.20;;;;;;;;;;5051921;28;20089;-73
2022/05/06 15:45:19;;;;;;;0.60;0.60;;;;;;;;;;5053203;28;20081;-73